createdAt,value
2023-03-11T00:00:26.747Z,5.07
2023-03-11T00:02:58.972Z,4.07
2023-03-11T00:05:27.923Z,5.52
2023-03-11T00:07:55.698Z,5.13
2023-03-11T00:10:29.323Z,5.51
2023-03-11T00:12:56.601Z,4.39
2023-03-11T00:15:23.201Z,5.32
2023-03-11T00:17:50.878Z,5.40
2023-03-11T00:20:19.863Z,5.03
2023-03-11T00:22:47.160Z,3.49
2023-03-11T00:25:14.848Z,4.30
2023-03-11T00:27:43.024Z,3.04
2023-03-11T00:30:11.671Z,4.80
2023-03-11T00:32:38.724Z,4.88
2023-03-11T00:35:06.888Z,5.03
2023-03-11T00:37:33.566Z,5.06
2023-03-11T00:40:00.338Z,4.05
2023-03-11T00:42:26.895Z,4.83
2023-03-11T00:44:54.851Z,3.48
2023-03-11T00:47:21.427Z,4.03
2023-03-11T00:49:48.009Z,3.91
2023-03-11T00:52:14.600Z,5.20
2023-03-11T00:54:41.176Z,4.86
2023-03-11T00:57:07.883Z,5.34
2023-03-11T00:59:34.575Z,3.91
2023-03-11T01:02:02.455Z,5.47
2023-03-11T01:04:29.461Z,5.48
2023-03-11T01:06:56.102Z,5.24
2023-03-11T01:09:22.660Z,6.04
2023-03-11T01:11:49.287Z,5.28
2023-03-11T01:14:15.938Z,6.39
2023-03-11T01:16:42.483Z,6.19
2023-03-11T01:19:10.410Z,6.15
2023-03-11T01:21:37.007Z,5.73
2023-03-11T01:24:03.810Z,6.28
2023-03-11T01:26:30.472Z,4.68
2023-03-11T01:28:57.116Z,5.46
2023-03-11T01:31:23.968Z,5.86
2023-03-11T01:33:50.562Z,5.32
2023-03-11T01:36:18.501Z,2.38
2023-03-11T01:38:45.115Z,5.11
2023-03-11T01:41:12.238Z,1.91
2023-03-11T01:43:51.449Z,1.69
2023-03-11T01:46:19.903Z,2.14
2023-03-11T01:48:49.083Z,4.78
2023-03-11T01:51:19.539Z,5.17
2023-03-11T01:53:46.937Z,4.79
2023-03-11T01:56:14.300Z,5.17
2023-03-11T01:58:44.968Z,3.35
2023-03-11T02:01:12.921Z,3.80
2023-03-11T02:03:40.841Z,5.48
2023-03-11T02:06:10.732Z,5.24
2023-03-11T02:08:39.509Z,5.71
2023-03-11T02:11:08.958Z,4.70
2023-03-11T02:13:36.993Z,5.54
2023-03-11T02:16:04.487Z,6.02
2023-03-11T02:18:31.890Z,6.04
2023-03-11T02:21:05.924Z,6.07
2023-03-11T02:23:39.519Z,5.04
2023-03-11T02:26:12.621Z,5.73
2023-03-11T02:28:42.566Z,6.02
2023-03-11T02:31:09.989Z,6.10
2023-03-11T02:33:37.226Z,6.08
2023-03-11T02:36:04.663Z,5.59
2023-03-11T02:38:31.279Z,5.97
2023-03-11T02:40:59.034Z,6.10
2023-03-11T02:43:33.585Z,6.13
2023-03-11T02:46:02.933Z,6.13
2023-03-11T02:48:30.591Z,3.46
2023-03-11T02:50:58.675Z,2.06
2023-03-11T02:53:28.462Z,4.04
2023-03-11T02:55:54.843Z,4.51
2023-03-11T02:58:21.388Z,5.15
2023-03-11T03:00:48.048Z,5.45
2023-03-11T03:03:16.215Z,2.80
2023-03-11T03:05:42.861Z,4.55
2023-03-11T03:08:09.474Z,5.72
2023-03-11T03:10:36.023Z,4.42
2023-03-11T03:13:02.743Z,5.67
2023-03-11T03:15:30.330Z,5.62
2023-03-11T03:17:56.886Z,6.01
2023-03-11T03:20:26.507Z,3.70
2023-03-11T03:22:53.515Z,2.57
2023-03-11T03:25:20.090Z,3.64
2023-03-11T03:27:46.891Z,4.94
2023-03-11T03:30:13.797Z,5.07
2023-03-11T03:32:40.586Z,3.60
2023-03-11T03:35:08.460Z,3.73
2023-03-11T03:37:37.528Z,5.30
2023-03-11T03:40:07.839Z,5.73
2023-03-11T03:42:35.122Z,5.84
2023-03-11T03:45:02.436Z,5.33
2023-03-11T03:47:29.030Z,5.25
2023-03-11T03:49:55.606Z,5.31
2023-03-11T03:52:22.194Z,4.81
2023-03-11T03:54:50.372Z,5.76
2023-03-11T03:57:17.519Z,5.96
2023-03-11T03:59:44.138Z,5.94
2023-03-11T04:02:10.796Z,5.16
2023-03-11T04:04:37.402Z,5.38
2023-03-11T04:07:04.538Z,5.75
2023-03-11T04:09:31.402Z,5.33
2023-03-11T04:12:00.191Z,2.66
2023-03-11T04:14:26.776Z,4.42
2023-03-11T04:16:53.473Z,5.38
2023-03-11T04:19:20.222Z,5.69
2023-03-11T04:21:46.808Z,5.76
2023-03-11T04:24:13.354Z,4.91
2023-03-11T04:26:39.952Z,5.71
2023-03-11T04:29:07.881Z,5.75
2023-03-11T04:31:34.624Z,5.24
2023-03-11T04:34:01.218Z,5.36
2023-03-11T04:36:27.802Z,5.61
2023-03-11T04:38:56.214Z,5.87
2023-03-11T04:41:23.136Z,5.85
2023-03-11T04:43:49.883Z,5.89
2023-03-11T04:46:17.944Z,5.86
2023-03-11T04:48:44.568Z,5.85
2023-03-11T04:51:11.132Z,5.81
2023-03-11T04:53:37.708Z,5.83
2023-03-11T04:56:04.680Z,5.71
2023-03-11T04:58:31.241Z,4.38
2023-03-11T05:00:57.791Z,4.01
2023-03-11T05:03:25.815Z,2.26
2023-03-11T05:05:56.535Z,1.66
2023-03-11T05:08:24.000Z,1.70
2023-03-11T05:10:51.726Z,3.61
2023-03-11T05:13:18.729Z,2.86
2023-03-11T05:15:45.780Z,4.98
2023-03-11T05:18:12.555Z,4.48
2023-03-11T05:20:40.520Z,4.08
2023-03-11T05:23:07.096Z,5.25
2023-03-11T05:25:33.645Z,4.87
2023-03-11T05:28:00.219Z,5.37
2023-03-11T05:30:27.012Z,5.44
2023-03-11T05:32:53.686Z,5.52
2023-03-11T05:35:20.702Z,5.44
2023-03-11T05:37:49.745Z,5.54
2023-03-11T05:40:17.294Z,5.54
2023-03-11T05:42:43.976Z,5.57
2023-03-11T05:45:10.802Z,5.58
2023-03-11T05:47:37.361Z,5.57
2023-03-11T05:50:04.791Z,5.59
2023-03-11T05:52:32.986Z,5.60
2023-03-11T05:55:00.958Z,5.59
2023-03-11T05:57:28.138Z,5.60
2023-03-11T05:59:54.797Z,5.61
2023-03-11T06:02:21.437Z,5.58
2023-03-11T06:04:48.249Z,5.58
2023-03-11T06:07:16.188Z,5.60
2023-03-11T06:09:42.783Z,5.32
2023-03-11T06:12:10.770Z,5.54
2023-03-11T06:14:38.623Z,2.89
2023-03-11T06:17:05.457Z,2.47
2023-03-11T06:19:32.131Z,0.82
2023-03-11T06:21:58.714Z,1.12
2023-03-11T06:24:25.437Z,2.31
2023-03-11T06:26:52.472Z,2.15
2023-03-11T06:29:24.250Z,1.04
2023-03-11T06:31:51.160Z,2.35
2023-03-11T06:34:17.952Z,4.43
2023-03-11T06:36:44.553Z,4.77
2023-03-11T06:39:14.029Z,5.06
2023-03-11T06:41:40.877Z,5.12
2023-03-11T06:44:07.485Z,5.20
2023-03-11T06:46:35.991Z,5.20
2023-03-11T06:49:02.585Z,5.19
2023-03-11T06:51:29.253Z,5.22
2023-03-11T06:53:55.859Z,5.23
2023-03-11T06:56:23.208Z,5.25
2023-03-11T06:58:49.988Z,5.26
2023-03-11T07:01:18.342Z,5.26
2023-03-11T07:03:47.940Z,5.27
2023-03-11T07:06:15.690Z,5.25
2023-03-11T07:08:42.638Z,5.25
2023-03-11T07:11:12.640Z,5.26
2023-03-11T07:13:39.544Z,5.28
2023-03-11T07:16:08.754Z,5.27
2023-03-11T07:18:36.287Z,5.28
2023-03-11T07:21:06.570Z,5.29
2023-03-11T07:23:33.475Z,5.29
2023-03-11T07:26:00.121Z,5.29
2023-03-11T07:28:28.097Z,5.31
2023-03-11T07:30:55.431Z,5.29
2023-03-11T07:33:24.100Z,5.28
2023-03-11T07:35:51.260Z,5.29
2023-03-11T07:38:19.885Z,5.29
2023-03-11T07:40:46.734Z,5.28
2023-03-11T07:43:13.305Z,5.30
2023-03-11T07:45:39.976Z,5.27
2023-03-11T07:48:06.723Z,5.27
2023-03-11T07:50:33.315Z,5.34
2023-03-11T07:52:59.905Z,5.31
2023-03-11T07:55:27.804Z,5.27
2023-03-11T07:57:54.485Z,5.27
2023-03-11T08:00:21.586Z,5.26
2023-03-11T08:02:48.291Z,5.26
2023-03-11T08:05:15.011Z,5.27
2023-03-11T08:07:41.653Z,5.26
2023-03-11T08:10:09.629Z,5.27
2023-03-11T08:12:37.579Z,5.28
2023-03-11T08:15:04.894Z,5.25
2023-03-11T08:17:31.477Z,3.85
2023-03-11T08:19:58.206Z,4.96
2023-03-11T08:22:24.793Z,5.17
2023-03-11T08:24:52.834Z,4.25
2023-03-11T08:27:20.104Z,4.79
2023-03-11T08:29:48.076Z,5.05
2023-03-11T08:32:14.789Z,2.54
2023-03-11T08:34:41.429Z,4.30
2023-03-11T08:37:08.160Z,3.39
2023-03-11T08:39:34.770Z,3.24
2023-03-11T08:42:02.878Z,3.30
2023-03-11T08:44:29.522Z,4.27
2023-03-11T08:46:57.489Z,3.44
2023-03-11T08:49:24.378Z,2.64
2023-03-11T08:51:51.008Z,3.62
2023-03-11T08:54:17.736Z,2.89
2023-03-11T08:56:44.562Z,2.37
2023-03-11T08:59:11.224Z,4.07
2023-03-11T09:01:37.882Z,4.60
2023-03-11T09:04:06.264Z,4.84
2023-03-11T09:06:32.891Z,4.52
2023-03-11T09:08:59.550Z,4.37
2023-03-11T09:11:26.178Z,4.33
2023-03-11T09:13:52.822Z,4.10
2023-03-11T09:16:21.743Z,4.87
2023-03-11T09:18:48.643Z,4.94
2023-03-11T09:21:16.616Z,4.73
2023-03-11T09:23:44.504Z,4.83
2023-03-11T09:26:11.677Z,4.92
2023-03-11T09:28:38.676Z,4.97
2023-03-11T09:31:05.350Z,4.93
2023-03-11T09:33:32.199Z,4.57
2023-03-11T09:35:59.071Z,4.56
2023-03-11T09:38:27.140Z,4.81
2023-03-11T09:40:59.390Z,4.39
2023-03-11T09:43:37.818Z,3.99
2023-03-11T09:46:28.441Z,4.06
2023-03-11T09:49:04.825Z,4.78
2023-03-11T09:51:36.061Z,4.91
2023-03-11T09:54:09.612Z,4.27
2023-03-11T09:56:37.885Z,4.23
2023-03-11T09:59:07.848Z,4.64
2023-03-11T10:01:37.482Z,4.51
2023-03-11T10:04:10.079Z,4.82
2023-03-11T10:06:37.463Z,4.89
2023-03-11T10:09:21.328Z,4.03
2023-03-11T10:11:56.870Z,4.45
2023-03-11T10:14:43.531Z,4.81
2023-03-11T10:17:19.554Z,4.44
2023-03-11T10:19:52.404Z,3.52
2023-03-11T10:22:24.310Z,4.25
2023-03-11T10:25:02.869Z,4.72
2023-03-11T10:27:35.926Z,4.72
2023-03-11T10:30:09.797Z,4.39
2023-03-11T10:32:42.633Z,4.74
2023-03-11T10:35:17.313Z,4.81
2023-03-11T10:37:50.114Z,4.80
2023-03-11T10:40:26.647Z,4.66
2023-03-11T10:42:55.169Z,3.93
2023-03-11T10:45:23.440Z,4.63
2023-03-11T10:47:50.216Z,3.46
2023-03-11T10:50:19.743Z,4.51
2023-03-11T10:53:05.135Z,4.72
2023-03-11T10:55:33.296Z,4.39
2023-03-11T10:58:08.046Z,4.69
2023-03-11T11:00:34.644Z,4.08
2023-03-11T11:03:04.317Z,4.60
2023-03-11T11:05:32.673Z,4.42
2023-03-11T11:08:05.669Z,4.68
2023-03-11T11:10:34.832Z,4.74
2023-03-11T11:13:16.661Z,3.76
2023-03-11T11:15:52.648Z,4.39
2023-03-11T11:18:22.370Z,4.37
2023-03-11T11:21:01.039Z,4.11
2023-03-11T11:23:32.834Z,3.47
2023-03-11T11:26:04.662Z,3.96
2023-03-11T11:28:33.354Z,3.86
2023-03-11T11:31:01.690Z,4.33
2023-03-11T11:33:30.288Z,4.61
2023-03-11T11:35:59.906Z,4.66
2023-03-11T11:38:28.678Z,4.70
2023-03-11T11:40:58.038Z,4.66
2023-03-11T11:43:38.882Z,4.70
2023-03-11T11:46:11.095Z,4.57
2023-03-11T11:48:47.484Z,3.85
2023-03-11T11:51:21.498Z,3.50
2023-03-11T11:53:52.759Z,3.10
2023-03-11T11:56:19.329Z,3.46
2023-03-11T11:58:48.574Z,2.86
2023-03-11T12:01:19.144Z,2.78
2023-03-11T12:04:06.757Z,2.54
2023-03-11T12:06:42.406Z,2.33
2023-03-11T12:09:24.045Z,2.34
2023-03-11T12:11:57.071Z,2.04
2023-03-11T12:14:29.300Z,3.45
2023-03-11T12:16:58.181Z,4.11
2023-03-11T12:19:39.174Z,4.04
2023-03-11T12:22:38.997Z,2.96
2023-03-11T12:25:22.124Z,2.73
2023-03-11T12:27:55.558Z,3.81
2023-03-11T12:30:27.272Z,3.78
2023-03-11T12:32:57.783Z,3.95
2023-03-11T12:35:27.814Z,2.42
2023-03-11T12:38:16.437Z,2.43
2023-03-11T12:40:58.197Z,2.34
2023-03-11T12:43:29.993Z,2.70
2023-03-11T12:46:01.366Z,3.60
2023-03-11T12:48:36.488Z,3.73
2023-03-11T12:51:03.450Z,3.23
2023-03-11T12:53:45.055Z,3.11
2023-03-11T12:56:25.739Z,3.63
2023-03-11T12:59:12.200Z,2.80
2023-03-11T13:01:56.868Z,2.39
2023-03-11T13:04:51.186Z,3.54
2023-03-11T13:07:37.529Z,3.41
2023-03-11T13:10:12.986Z,3.58
2023-03-11T13:12:41.974Z,3.28
2023-03-11T13:15:34.598Z,3.87
2023-03-11T13:18:14.101Z,4.24
2023-03-11T13:20:56.095Z,3.82
2023-03-11T13:23:26.735Z,3.17
2023-03-11T13:26:18.970Z,3.14
2023-03-11T13:28:55.095Z,2.51
2023-03-11T13:31:39.032Z,2.64
2023-03-11T13:34:15.367Z,3.20
2023-03-11T13:36:51.347Z,3.05
2023-03-11T13:39:31.884Z,3.06
2023-03-11T13:41:58.587Z,3.78
2023-03-11T13:44:29.102Z,3.57
2023-03-11T13:47:01.728Z,4.07
2023-03-11T13:49:37.854Z,4.24
2023-03-11T13:52:09.463Z,3.77
2023-03-11T13:54:42.477Z,3.61
2023-03-11T13:57:22.821Z,3.81
2023-03-11T13:59:52.956Z,3.92
2023-03-11T14:02:22.870Z,3.27
2023-03-11T14:04:54.950Z,4.16
2023-03-11T14:07:27.596Z,4.16
2023-03-11T14:10:18.717Z,4.11
2023-03-11T14:12:45.836Z,4.57
2023-03-11T14:15:17.241Z,4.68
2023-03-11T14:17:44.199Z,4.50
2023-03-11T14:20:16.709Z,4.65
2023-03-11T14:22:46.117Z,4.57
2023-03-11T14:25:18.957Z,4.73
2023-03-11T14:27:51.586Z,4.52
2023-03-11T14:30:24.434Z,4.18
2023-03-11T14:33:00.598Z,4.20
2023-03-11T14:35:29.707Z,4.43
2023-03-11T14:37:56.952Z,4.42
2023-03-11T14:40:27.188Z,4.62
2023-03-11T14:42:55.751Z,4.07
2023-03-11T14:45:24.915Z,4.09
2023-03-11T14:47:56.284Z,3.70
2023-03-11T14:50:25.802Z,3.53
2023-03-11T14:52:58.586Z,3.65
2023-03-11T14:55:29.087Z,3.42
2023-03-11T14:58:00.328Z,4.02
2023-03-11T15:00:33.623Z,4.29
2023-03-11T15:03:07.384Z,4.59
2023-03-11T15:05:41.394Z,4.71
2023-03-11T15:08:09.867Z,4.67
2023-03-11T15:10:37.000Z,4.61
2023-03-11T15:13:06.263Z,4.74
2023-03-11T15:15:33.055Z,4.82
2023-03-11T15:18:01.388Z,4.42
2023-03-11T15:20:31.140Z,4.31
2023-03-11T15:23:00.659Z,4.49
2023-03-11T15:25:31.256Z,4.51
2023-03-11T15:27:57.922Z,4.54
2023-03-11T15:30:27.545Z,4.67
2023-03-11T15:32:55.345Z,4.43
2023-03-11T15:35:24.133Z,4.22
2023-03-11T15:38:11.435Z,4.41
2023-03-11T15:40:45.641Z,4.61
2023-03-11T15:43:21.667Z,4.55
2023-03-11T15:45:49.067Z,4.28
2023-03-11T15:48:15.857Z,4.44
2023-03-11T15:50:53.268Z,4.66
2023-03-11T15:53:21.057Z,4.10
2023-03-11T15:55:49.132Z,4.73
2023-03-11T15:58:17.463Z,4.87
2023-03-11T16:00:47.618Z,4.86
2023-03-11T16:03:14.764Z,4.89
2023-03-11T16:05:41.669Z,4.89
2023-03-11T16:08:08.241Z,5.01
2023-03-11T16:10:35.432Z,5.03
2023-03-11T16:13:03.426Z,5.06
2023-03-11T16:15:32.081Z,5.07
2023-03-11T16:18:00.366Z,5.13
2023-03-11T16:20:32.145Z,5.16
2023-03-11T16:23:01.296Z,5.14
2023-03-11T16:25:30.585Z,5.12
2023-03-11T16:27:57.921Z,4.91
2023-03-11T16:30:27.525Z,5.15
2023-03-11T16:32:54.294Z,5.26
2023-03-11T16:35:21.360Z,5.24
2023-03-11T16:37:48.443Z,5.24
2023-03-11T16:40:18.919Z,4.99
2023-03-11T16:42:46.253Z,4.40
2023-03-11T16:45:14.647Z,5.01
2023-03-11T16:47:42.754Z,5.29
2023-03-11T16:50:10.984Z,5.32
2023-03-11T16:52:37.832Z,5.35
2023-03-11T16:55:05.337Z,5.32
2023-03-11T16:57:32.082Z,5.34
2023-03-11T16:59:58.853Z,5.33
2023-03-11T17:02:25.592Z,5.30
2023-03-11T17:04:53.665Z,5.30
2023-03-11T17:07:24.019Z,5.26
2023-03-11T17:09:51.575Z,5.32
2023-03-11T17:12:19.158Z,5.39
2023-03-11T17:14:46.234Z,5.36
2023-03-11T17:17:13.054Z,5.38
2023-03-11T17:19:39.684Z,5.39
2023-03-11T17:22:07.635Z,5.41
2023-03-11T17:24:34.244Z,5.42
2023-03-11T17:27:00.812Z,5.40
2023-03-11T17:29:27.374Z,5.41
2023-03-11T17:31:54.048Z,5.39
2023-03-11T17:34:20.967Z,5.43
2023-03-11T17:36:47.561Z,5.46
2023-03-11T17:39:15.538Z,5.45
2023-03-11T17:41:42.150Z,5.45
2023-03-11T17:44:09.519Z,5.42
2023-03-11T17:46:36.339Z,5.41
2023-03-11T17:49:03.020Z,5.41
2023-03-11T17:51:29.663Z,5.43
2023-03-11T17:53:56.408Z,5.45
2023-03-11T17:56:24.500Z,5.45
2023-03-11T17:58:51.276Z,5.46
2023-03-11T18:01:20.535Z,5.50
2023-03-11T18:03:47.549Z,5.50
2023-03-11T18:06:14.588Z,5.47
2023-03-11T18:08:41.496Z,5.46
2023-03-11T18:11:10.077Z,5.47
2023-03-11T18:13:39.074Z,5.48
2023-03-11T18:16:08.076Z,5.47
2023-03-11T18:18:36.294Z,5.50
2023-03-11T18:21:04.216Z,5.51
2023-03-11T18:23:33.065Z,5.52
2023-03-11T18:26:00.553Z,5.52
2023-03-11T18:28:27.318Z,5.51
2023-03-11T18:30:55.313Z,5.52
2023-03-11T18:33:22.604Z,5.53
2023-03-11T18:35:49.314Z,5.51
2023-03-11T18:38:16.376Z,5.50
2023-03-11T18:40:43.076Z,5.50
2023-03-11T18:43:12.287Z,5.49
2023-03-11T18:45:39.008Z,5.48
2023-03-11T18:48:07.166Z,5.49
2023-03-11T18:50:33.764Z,5.48
2023-03-11T18:53:00.344Z,5.50
2023-03-11T18:55:27.187Z,5.49
2023-03-11T18:57:53.804Z,5.47
2023-03-11T19:00:23.579Z,5.49
2023-03-11T19:02:51.544Z,5.49
2023-03-11T19:05:20.581Z,5.50
2023-03-11T19:07:47.190Z,5.49
2023-03-11T19:10:15.371Z,5.48
2023-03-11T19:12:44.638Z,5.48
2023-03-11T19:15:11.950Z,5.48
2023-03-11T19:17:38.551Z,5.47
2023-03-11T19:20:08.747Z,5.48
2023-03-11T19:22:36.913Z,5.49
2023-03-11T19:25:04.979Z,5.40
2023-03-11T19:27:31.993Z,5.46
2023-03-11T19:29:59.711Z,5.47
2023-03-11T19:32:26.334Z,5.46
2023-03-11T19:34:53.014Z,5.45
2023-03-11T19:37:19.604Z,5.34
2023-03-11T19:39:47.520Z,5.13
2023-03-11T19:42:14.441Z,5.37
2023-03-11T19:44:41.065Z,4.87
2023-03-11T19:47:07.744Z,5.12
2023-03-11T19:49:34.526Z,4.77
2023-03-11T19:52:01.065Z,5.20
2023-03-11T19:54:28.658Z,5.37
2023-03-11T19:56:56.731Z,5.24
2023-03-11T19:59:23.400Z,5.34
2023-03-11T20:01:50.124Z,5.38
2023-03-11T20:04:16.887Z,5.38
2023-03-11T20:06:44.075Z,5.38
2023-03-11T20:09:11.651Z,5.38
2023-03-11T20:11:39.812Z,5.39
2023-03-11T20:14:08.191Z,5.37
2023-03-11T20:16:34.906Z,5.38
2023-03-11T20:19:01.664Z,5.39
2023-03-11T20:21:28.329Z,5.37
2023-03-11T20:23:55.480Z,5.35
2023-03-11T20:26:23.312Z,5.35
2023-03-11T20:28:49.935Z,5.35
2023-03-11T20:31:19.833Z,5.32
2023-03-11T20:33:47.026Z,5.35
2023-03-11T20:36:17.367Z,5.34
2023-03-11T20:38:44.070Z,5.34
2023-03-11T20:41:10.860Z,5.33
2023-03-11T20:43:38.617Z,5.32
2023-03-11T20:46:06.986Z,5.32
2023-03-11T20:48:35.777Z,5.34
2023-03-11T20:51:04.454Z,5.30
2023-03-11T20:53:31.607Z,5.31
2023-03-11T20:55:58.364Z,5.31
2023-03-11T20:58:25.456Z,5.32
2023-03-11T21:00:52.189Z,5.28
2023-03-11T21:03:18.914Z,5.31
2023-03-11T21:05:47.525Z,5.29
2023-03-11T21:08:14.240Z,5.27
2023-03-11T21:10:40.998Z,5.26
2023-03-11T21:13:07.729Z,5.26
2023-03-11T21:15:35.154Z,5.25
2023-03-11T21:18:01.853Z,5.25
2023-03-11T21:20:28.546Z,5.22
2023-03-11T21:22:56.530Z,5.22
2023-03-11T21:25:23.098Z,5.24
2023-03-11T21:27:49.669Z,5.22
2023-03-11T21:30:16.493Z,5.22
2023-03-11T21:32:43.267Z,5.23
2023-03-11T21:35:10.095Z,5.24
2023-03-11T21:37:36.940Z,5.21
2023-03-11T21:40:07.459Z,5.20
2023-03-11T21:42:34.169Z,5.23
2023-03-11T21:45:00.816Z,5.21
2023-03-11T21:47:27.594Z,5.18
2023-03-11T21:49:54.188Z,5.18
2023-03-11T21:52:20.823Z,5.18
2023-03-11T21:54:47.510Z,5.17
2023-03-11T21:57:15.545Z,5.18
2023-03-11T21:59:42.185Z,5.16
2023-03-11T22:02:14.259Z,5.16
2023-03-11T22:04:41.233Z,5.16
2023-03-11T22:07:08.485Z,5.14
2023-03-11T22:09:35.520Z,5.12
2023-03-11T22:12:02.520Z,5.15
2023-03-11T22:14:30.450Z,5.12
2023-03-11T22:16:57.263Z,5.14
2023-03-11T22:19:23.885Z,5.12
2023-03-11T22:21:50.649Z,5.10
2023-03-11T22:24:17.344Z,5.10
2023-03-11T22:26:43.935Z,5.12
2023-03-11T22:29:13.352Z,5.12
2023-03-11T22:31:41.658Z,5.09
2023-03-11T22:34:08.246Z,5.09
2023-03-11T22:36:34.833Z,5.12
2023-03-11T22:39:04.170Z,5.11
2023-03-11T22:41:30.936Z,5.07
2023-03-11T22:43:57.558Z,5.06
2023-03-11T22:46:24.284Z,5.08
2023-03-11T22:48:52.339Z,5.05
2023-03-11T22:51:18.913Z,5.07
2023-03-11T22:53:45.546Z,5.04
2023-03-11T22:56:14.751Z,5.03
2023-03-11T22:58:41.831Z,5.03
2023-03-11T23:01:08.880Z,5.03
2023-03-11T23:03:36.494Z,5.01
2023-03-11T23:06:07.540Z,5.01
2023-03-11T23:08:34.712Z,5.00
2023-03-11T23:11:02.998Z,5.00
2023-03-11T23:13:30.606Z,4.99
2023-03-11T23:16:02.402Z,4.99
2023-03-11T23:18:28.990Z,5.00
2023-03-11T23:20:55.906Z,4.98
2023-03-11T23:23:23.846Z,4.98
2023-03-11T23:25:50.512Z,5.01
2023-03-11T23:28:17.145Z,5.01
2023-03-11T23:30:43.759Z,4.98
2023-03-11T23:33:10.389Z,4.96
2023-03-11T23:35:41.768Z,4.95
2023-03-11T23:38:09.038Z,4.95
2023-03-11T23:40:39.766Z,4.97
2023-03-11T23:43:06.362Z,4.98
2023-03-11T23:45:33.001Z,4.94
2023-03-11T23:47:59.605Z,4.91
2023-03-11T23:50:26.162Z,4.90
2023-03-11T23:52:52.759Z,4.91
2023-03-11T23:55:19.368Z,4.91
2023-03-11T23:57:47.355Z,4.90
